KAMN/AMN METAR and TAF weather

Enter ICAO airport designator
Station Type Date Time Source
KAMN METAR 2019/10/20 18:55 UTC NOAA

KAMN 201855Z AUTO 27011KT 10SM SCT036 18/09 A2989 RMK AO2 T01840086


Station Type Date Time Source
KAMN Decoded METAR 2019/10/20 18:55 UTC NOAA

Alma, Gratiot Community Airport, MI, United States (KAMN) 43-19-19N 084-41-16W
Oct 20, 2019 - 02:55 PM EDT / 2019.10.20 1855 UTC
Wind: from the W (270 degrees) at 13 MPH (11 KT):0
Visibility: 10 mile(s):0
Sky conditions: partly cloudy
Temperature: 65.1 F (18.4 C)
Dew Point: 47.5 F (8.6 C)
Relative Humidity: 52%
Pressure (altimeter): 29.89 in. Hg (1012 hPa)
ob: KAMN 201855Z AUTO 27011KT 10SM SCT036 18/09 A2989 RMK AO2 T01840086
cycle: 19

Station Type Date Time Source
KAMN TAF UTC NOAA

Error!

Example: see airport list